Погода Тенериана 2 недели

Гуанахуато, Мексика

21 февраля-05 марта
  • 21февраля
    Сегодня
    +9°
    +29°
    Ясно и безоблачно
    ВремяПогодаТемператураВлажностьДавлениеВетер, м/сВероятность осадков
    00:00Ясно и безоблачно+14°C68 %626 мм2.2 м/с2 %
    03:00Ясно и безоблачно+11°C79 %625 мм2.0 м/с2 %
    06:00Ясно и безоблачно+9°C82 %624 мм1.5 м/с2 %
    09:00Ясно и безоблачно+12°C55 %626 мм1.0 м/с2 %
    12:00Ясно и безоблачно+23°C22 %628 мм0.5 м/с2 %
    15:00Ясно и безоблачно+28°C10 %626 мм1.0 м/с2 %
    18:00Ясно и безоблачно+27°C25 %625 мм1.2 м/с2 %
    21:00Ясно и безоблачно+20°C27 %623 мм1.1 м/с2 %
  • 22февраля
    Четверг
    +9°
    +30°
    Ясно и безоблачно
    ВремяПогодаТемператураВлажностьДавлениеВетер, м/сВероятность осадков
    00:00Ясно и безоблачно+16°C40 %623 мм2.0 м/с2 %
    03:00Ясно и безоблачно+13°C50 %622 мм1.6 м/с2 %
    06:00Ясно и безоблачно+10°C58 %621 мм1.4 м/с2 %
    09:00Ясно и безоблачно+14°C37 %624 мм0.5 м/с2 %
    12:00Ясно и безоблачно+24°C19 %626 мм2.1 м/с2 %
    15:00Ясно и безоблачно+29°C13 %624 мм2.0 м/с2 %
    18:00Ясно и безоблачно+28°C27 %623 мм1.4 м/с2 %
    21:00Ясно и безоблачно+24°C18 %623 мм0.6 м/с2 %
  • 23февраля
    Пятница
    +11°
    +31°
    Небольшая облачность
    ВремяПогодаТемператураВлажностьДавлениеВетер, м/сВероятность осадков
    00:00Ясно и безоблачно+20°C29 %623 мм0.3 м/с2 %
    03:00Ясно и безоблачно+15°C45 %620 мм0.9 м/с2 %
    06:00Ясно и безоблачно+12°C57 %620 мм1.3 м/с2 %
    09:00Ясно и безоблачно+15°C38 %622 мм0.8 м/с2 %
    12:00Ясно и безоблачно+25°C18 %624 мм0.7 м/с2 %
    15:00Небольшая облачность+30°C9 %623 мм1.5 м/с2 %
    18:00Ясно и безоблачно+28°C24 %622 мм0.4 м/с2 %
    21:00Ясно и безоблачно+19°C51 %623 мм3.0 м/с2 %
  • 24февраля
    Суббота
    +11°
    +30°
    Практически безоблачно
    ВремяПогодаТемператураВлажностьДавлениеВетер, м/сВероятность осадков
    00:00Ясно и безоблачно+16°C71 %623 мм3.4 м/с2 %
    03:00Ясно и безоблачно+13°C86 %622 мм2.4 м/с2 %
    06:00Практически безоблачно+11°C91 %623 мм2.3 м/с2 %
    09:00Практически безоблачно+13°C70 %625 мм2.8 м/с2 %
    12:00Ясно и безоблачно+23°C37 %626 мм1.8 м/с2 %
    15:00Практически безоблачно+29°C18 %625 мм0.7 м/с2 %
    18:00Облачно с прояснениями+30°C21 %625 мм0.8 м/с2 %
    21:00Практически безоблачно+20°C61 %626 мм3.2 м/с2 %
Мы используем cookies
Соглашаюсь